sensor_id;sensor_type;location;lat;lon;timestamp;pressure;altitude;pressure_sealevel;temperature;humidity
61554;BME280;47425;51.976;5.326;2023-07-20T00:02:09;101323.47;;;19.74;60.96
61554;BME280;47425;51.976;5.326;2023-07-20T00:04:38;101332.16;;;19.77;61.27
61554;BME280;47425;51.976;5.326;2023-07-20T00:07:13;101321.00;;;19.71;61.29
61554;BME280;47425;51.976;5.326;2023-07-20T00:09:45;101324.81;;;19.65;62.13
61554;BME280;47425;51.976;5.326;2023-07-20T00:12:15;101319.44;;;19.49;62.47
61554;BME280;47425;51.976;5.326;2023-07-20T00:14:42;101331.69;;;19.34;63.44
61554;BME280;47425;51.976;5.326;2023-07-20T00:17:10;101328.69;;;19.40;62.54
61554;BME280;47425;51.976;5.326;2023-07-20T00:19:37;101324.28;;;19.41;62.94
61554;BME280;47425;51.976;5.326;2023-07-20T00:22:05;101327.78;;;19.41;62.07
61554;BME280;47425;51.976;5.326;2023-07-20T00:24:36;101329.22;;;19.49;63.00
61554;BME280;47425;51.976;5.326;2023-07-20T00:27:07;101334.91;;;19.58;62.40
61554;BME280;47425;51.976;5.326;2023-07-20T00:29:36;101333.63;;;19.48;61.75
61554;BME280;47425;51.976;5.326;2023-07-20T00:32:04;101331.84;;;19.31;62.26
61554;BME280;47425;51.976;5.326;2023-07-20T00:34:31;101328.84;;;19.20;62.71
61554;BME280;47425;51.976;5.326;2023-07-20T00:36:59;101328.19;;;19.15;63.49
61554;BME280;47425;51.976;5.326;2023-07-20T00:39:26;101328.66;;;19.05;62.98
61554;BME280;47425;51.976;5.326;2023-07-20T00:41:53;101329.44;;;19.07;63.53
61554;BME280;47425;51.976;5.326;2023-07-20T00:44:22;101322.56;;;19.03;64.99
61554;BME280;47425;51.976;5.326;2023-07-20T00:46:49;101323.97;;;19.10;63.63
61554;BME280;47425;51.976;5.326;2023-07-20T00:49:17;101323.28;;;19.07;63.24
61554;BME280;47425;51.976;5.326;2023-07-20T00:51:47;101326.16;;;19.02;64.20
61554;BME280;47425;51.976;5.326;2023-07-20T00:54:16;101332.50;;;19.17;63.54
61554;BME280;47425;51.976;5.326;2023-07-20T00:56:44;101327.75;;;19.24;63.34
61554;BME280;47425;51.976;5.326;2023-07-20T00:59:13;101324.94;;;19.27;62.63
61554;BME280;47425;51.976;5.326;2023-07-20T01:01:41;101326.66;;;19.28;62.91
61554;BME280;47425;51.976;5.326;2023-07-20T01:04:10;101335.81;;;19.40;61.90
61554;BME280;47425;51.976;5.326;2023-07-20T01:06:43;101332.41;;;19.38;61.77
61554;BME280;47425;51.976;5.326;2023-07-20T01:09:16;101333.72;;;19.47;61.76
61554;BME280;47425;51.976;5.326;2023-07-20T01:11:57;101333.09;;;19.76;60.87
61554;BME280;47425;51.976;5.326;2023-07-20T01:14:27;101331.78;;;20.03;60.39
61554;BME280;47425;51.976;5.326;2023-07-20T01:17:01;101338.09;;;20.18;59.84
61554;BME280;47425;51.976;5.326;2023-07-20T01:19:28;101337.34;;;20.32;59.30
61554;BME280;47425;51.976;5.326;2023-07-20T01:22:02;101336.31;;;20.34;58.54
61554;BME280;47425;51.976;5.326;2023-07-20T01:25:03;101344.13;;;20.21;59.16
61554;BME280;47425;51.976;5.326;2023-07-20T01:28:12;101334.47;;;20.36;58.25
61554;BME280;47425;51.976;5.326;2023-07-20T01:33:33;101335.31;;;20.86;56.98
61554;BME280;47425;51.976;5.326;2023-07-20T01:36:03;101336.31;;;21.16;56.30
61554;BME280;47425;51.976;5.326;2023-07-20T01:38:30;101335.69;;;21.42;55.49
61554;BME280;47425;51.976;5.326;2023-07-20T01:40:57;101338.06;;;21.63;54.59
61554;BME280;47425;51.976;5.326;2023-07-20T01:43:25;101343.13;;;21.82;53.88
61554;BME280;47425;51.976;5.326;2023-07-20T01:45:54;101341.44;;;21.95;53.67
61554;BME280;47425;51.976;5.326;2023-07-20T01:48:21;101348.81;;;22.06;52.96
61554;BME280;47425;51.976;5.326;2023-07-20T01:50:52;101348.22;;;22.16;52.83
61554;BME280;47425;51.976;5.326;2023-07-20T01:53:21;101346.03;;;22.22;52.67
61554;BME280;47425;51.976;5.326;2023-07-20T01:55:47;101346.53;;;22.29;52.33
61554;BME280;47425;51.976;5.326;2023-07-20T01:58:17;101347.19;;;22.33;52.18
61554;BME280;47425;51.976;5.326;2023-07-20T02:00:43;101342.81;;;22.32;52.16
61554;BME280;47425;51.976;5.326;2023-07-20T02:03:11;101341.19;;;22.29;52.08
61554;BME280;47425;51.976;5.326;2023-07-20T02:05:40;101344.91;;;22.12;52.32
61554;BME280;47425;51.976;5.326;2023-07-20T02:08:10;101348.44;;;22.12;52.59
61554;BME280;47425;51.976;5.326;2023-07-20T02:10:40;101349.00;;;22.18;52.12
61554;BME280;47425;51.976;5.326;2023-07-20T02:13:07;101351.13;;;22.27;52.16
61554;BME280;47425;51.976;5.326;2023-07-20T02:15:36;101357.03;;;22.32;51.89
61554;BME280;47425;51.976;5.326;2023-07-20T02:18:02;101358.19;;;22.42;51.51
61554;BME280;47425;51.976;5.326;2023-07-20T02:20:33;101358.19;;;22.42;51.31
61554;BME280;47425;51.976;5.326;2023-07-20T02:23:00;101360.84;;;22.42;51.28
61554;BME280;47425;51.976;5.326;2023-07-20T02:25:30;101351.22;;;22.40;51.46
61554;BME280;47425;51.976;5.326;2023-07-20T02:28:01;101358.88;;;22.46;51.21
61554;BME280;47425;51.976;5.326;2023-07-20T02:30:37;101353.53;;;22.46;51.39
61554;BME280;47425;51.976;5.326;2023-07-20T02:33:07;101354.38;;;22.46;51.04
61554;BME280;47425;51.976;5.326;2023-07-20T02:35:36;101348.84;;;22.50;51.03
61554;BME280;47425;51.976;5.326;2023-07-20T02:38:03;101359.53;;;22.50;50.47
61554;BME280;47425;51.976;5.326;2023-07-20T02:40:32;101357.03;;;22.32;51.27
61554;BME280;47425;51.976;5.326;2023-07-20T02:43:01;101359.59;;;22.34;51.07
61554;BME280;47425;51.976;5.326;2023-07-20T02:45:32;101357.72;;;22.36;51.25
61554;BME280;47425;51.976;5.326;2023-07-20T02:48:01;101360.84;;;22.42;50.96
61554;BME280;47425;51.976;5.326;2023-07-20T02:50:28;101360.59;;;22.47;50.97
61554;BME280;47425;51.976;5.326;2023-07-20T02:52:54;101370.38;;;22.46;51.13
61554;BME280;47425;51.976;5.326;2023-07-20T02:55:23;101369.75;;;22.43;51.09
61554;BME280;47425;51.976;5.326;2023-07-20T02:57:54;101356.94;;;22.34;50.66
61554;BME280;47425;51.976;5.326;2023-07-20T03:00:21;101371.63;;;22.41;50.93
61554;BME280;47425;51.976;5.326;2023-07-20T03:02:48;101373.25;;;22.43;50.78
61554;BME280;47425;51.976;5.326;2023-07-20T03:05:21;101375.66;;;22.48;50.67
61554;BME280;47425;51.976;5.326;2023-07-20T03:07:49;101374.97;;;22.44;50.60
61554;BME280;47425;51.976;5.326;2023-07-20T03:10:15;101383.47;;;22.51;50.50
61554;BME280;47425;51.976;5.326;2023-07-20T03:12:46;101369.44;;;22.48;50.58
61554;BME280;47425;51.976;5.326;2023-07-20T03:15:16;101366.88;;;22.46;50.32
61554;BME280;47425;51.976;5.326;2023-07-20T03:17:42;101378.38;;;22.46;50.52
61554;BME280;47425;51.976;5.326;2023-07-20T03:20:15;101381.34;;;22.42;50.29
61554;BME280;47425;51.976;5.326;2023-07-20T03:22:45;101384.97;;;22.41;50.53
61554;BME280;47425;51.976;5.326;2023-07-20T03:25:13;101392.81;;;22.44;50.66
61554;BME280;47425;51.976;5.326;2023-07-20T03:27:40;101389.06;;;22.46;50.71
61554;BME280;47425;51.976;5.326;2023-07-20T03:30:08;101391.72;;;22.46;50.51
61554;BME280;47425;51.976;5.326;2023-07-20T03:32:36;101382.97;;;22.44;50.37
61554;BME280;47425;51.976;5.326;2023-07-20T03:35:05;101391.09;;;22.43;50.51
61554;BME280;47425;51.976;5.326;2023-07-20T03:37:32;101394.34;;;22.48;50.47
61554;BME280;47425;51.976;5.326;2023-07-20T03:40:01;101390.63;;;22.51;50.13
61554;BME280;47425;51.976;5.326;2023-07-20T03:42:30;101394.03;;;22.53;50.16
61554;BME280;47425;51.976;5.326;2023-07-20T03:45:00;101389.38;;;22.42;50.05
61554;BME280;47425;51.976;5.326;2023-07-20T03:47:33;101387.75;;;22.39;50.59
61554;BME280;47425;51.976;5.326;2023-07-20T03:50:01;101384.13;;;22.40;50.22
61554;BME280;47425;51.976;5.326;2023-07-20T03:52:30;101386.13;;;22.37;50.48
61554;BME280;47425;51.976;5.326;2023-07-20T03:54:58;101385.41;;;22.33;50.44
61554;BME280;47425;51.976;5.326;2023-07-20T03:57:26;101397.81;;;22.34;50.34
61554;BME280;47425;51.976;5.326;2023-07-20T03:59:56;101393.81;;;22.27;50.55
61554;BME280;47425;51.976;5.326;2023-07-20T04:02:26;101402.38;;;22.32;50.51
61554;BME280;47425;51.976;5.326;2023-07-20T04:04:55;101401.38;;;22.35;50.57
61554;BME280;47425;51.976;5.326;2023-07-20T04:07:23;101391.13;;;22.27;50.55
61554;BME280;47425;51.976;5.326;2023-07-20T04:09:52;101398.19;;;22.28;49.96
61554;BME280;47425;51.976;5.326;2023-07-20T04:12:19;101410.16;;;22.21;50.54
61554;BME280;47425;51.976;5.326;2023-07-20T04:14:49;101395.03;;;22.21;50.73
61554;BME280;47425;51.976;5.326;2023-07-20T04:17:15;101398.47;;;22.23;50.67
61554;BME280;47425;51.976;5.326;2023-07-20T04:19:42;101400.09;;;22.26;50.62
61554;BME280;47425;51.976;5.326;2023-07-20T04:22:10;101400.44;;;22.20;50.97
61554;BME280;47425;51.976;5.326;2023-07-20T04:24:41;101412.06;;;22.04;51.13
61554;BME280;47425;51.976;5.326;2023-07-20T04:27:10;101411.16;;;21.89;51.43
61554;BME280;47425;51.976;5.326;2023-07-20T04:29:38;101404.47;;;21.82;51.67
61554;BME280;47425;51.976;5.326;2023-07-20T04:32:06;101412.09;;;21.88;51.59
61554;BME280;47425;51.976;5.326;2023-07-20T04:34:36;101406.97;;;21.85;51.41
61554;BME280;47425;51.976;5.326;2023-07-20T04:37:03;101412.59;;;21.65;52.04
61554;BME280;47425;51.976;5.326;2023-07-20T04:39:35;101408.84;;;21.37;52.64
61554;BME280;47425;51.976;5.326;2023-07-20T04:42:09;101403.75;;;21.32;52.79
61554;BME280;47425;51.976;5.326;2023-07-20T04:44:36;101402.53;;;21.38;52.77
61554;BME280;47425;51.976;5.326;2023-07-20T04:47:04;101411.22;;;21.41;52.45
61554;BME280;47425;51.976;5.326;2023-07-20T04:49:51;101400.03;;;20.87;52.17
61554;BME280;47425;51.976;5.326;2023-07-20T04:52:17;101416.44;;;20.45;53.65
61554;BME280;47425;51.976;5.326;2023-07-20T04:54:46;101417.84;;;20.35;53.98
61554;BME280;47425;51.976;5.326;2023-07-20T04:57:14;101416.69;;;20.23;54.12
61554;BME280;47425;51.976;5.326;2023-07-20T04:59:46;101424.53;;;20.09;55.01
61554;BME280;47425;51.976;5.326;2023-07-20T05:02:14;101425.22;;;19.95;55.44
61554;BME280;47425;51.976;5.326;2023-07-20T05:04:41;101419.44;;;19.87;55.90
61554;BME280;47425;51.976;5.326;2023-07-20T05:07:12;101426.47;;;20.23;55.72
61554;BME280;47425;51.976;5.326;2023-07-20T05:09:40;101431.72;;;20.24;55.37
61554;BME280;47425;51.976;5.326;2023-07-20T05:12:08;101425.22;;;20.12;56.71
61554;BME280;47425;51.976;5.326;2023-07-20T05:14:36;101428.56;;;20.34;56.75
61554;BME280;47425;51.976;5.326;2023-07-20T05:17:05;101428.47;;;20.53;55.78
61554;BME280;47425;51.976;5.326;2023-07-20T05:19:32;101427.44;;;20.55;56.00
61554;BME280;47425;51.976;5.326;2023-07-20T05:22:00;101427.72;;;20.33;57.31
61554;BME280;47425;51.976;5.326;2023-07-20T05:24:27;101432.66;;;20.23;56.54
61554;BME280;47425;51.976;5.326;2023-07-20T05:26:55;101428.13;;;20.08;56.83
61554;BME280;47425;51.976;5.326;2023-07-20T05:29:24;101431.94;;;19.85;56.94
61554;BME280;47425;51.976;5.326;2023-07-20T05:31:53;101431.63;;;19.54;58.08
61554;BME280;47425;51.976;5.326;2023-07-20T05:34:20;101434.97;;;19.21;58.48
61554;BME280;47425;51.976;5.326;2023-07-20T05:36:48;101427.09;;;19.01;58.47
61554;BME280;47425;51.976;5.326;2023-07-20T05:39:16;101425.66;;;18.73;59.93
61554;BME280;47425;51.976;5.326;2023-07-20T05:41:43;101419.22;;;18.39;60.84
61554;BME280;47425;51.976;5.326;2023-07-20T05:44:11;101423.00;;;18.33;62.06
61554;BME280;47425;51.976;5.326;2023-07-20T05:46:39;101424.94;;;18.09;62.68
61554;BME280;47425;51.976;5.326;2023-07-20T05:49:10;101422.00;;;17.94;64.63
61554;BME280;47425;51.976;5.326;2023-07-20T05:51:37;101432.22;;;18.04;63.90
61554;BME280;47425;51.976;5.326;2023-07-20T05:54:05;101431.22;;;18.06;62.98
61554;BME280;47425;51.976;5.326;2023-07-20T05:56:33;101434.00;;;18.03;63.44
61554;BME280;47425;51.976;5.326;2023-07-20T05:59:02;101430.28;;;18.07;64.18
61554;BME280;47425;51.976;5.326;2023-07-20T06:01:29;101437.25;;;18.10;63.18
61554;BME280;47425;51.976;5.326;2023-07-20T06:03:57;101431.09;;;18.09;63.01
61554;BME280;47425;51.976;5.326;2023-07-20T06:06:26;101428.59;;;18.06;62.60
61554;BME280;47425;51.976;5.326;2023-07-20T06:08:56;101426.78;;;18.07;62.97
61554;BME280;47425;51.976;5.326;2023-07-20T06:11:25;101427.63;;;18.07;62.80
61554;BME280;47425;51.976;5.326;2023-07-20T06:13:53;101434.56;;;18.11;63.00
61554;BME280;47425;51.976;5.326;2023-07-20T06:16:19;101440.63;;;18.14;62.39
61554;BME280;47425;51.976;5.326;2023-07-20T06:18:46;101440.94;;;18.06;62.10
61554;BME280;47425;51.976;5.326;2023-07-20T06:21:14;101439.97;;;18.08;62.19
61554;BME280;47425;51.976;5.326;2023-07-20T06:23:42;101444.56;;;18.25;62.75
61554;BME280;47425;51.976;5.326;2023-07-20T06:26:10;101447.91;;;18.50;62.27
61554;BME280;47425;51.976;5.326;2023-07-20T06:28:40;101442.34;;;18.56;62.13
61554;BME280;47425;51.976;5.326;2023-07-20T06:31:11;101445.75;;;18.39;63.18
61554;BME280;47425;51.976;5.326;2023-07-20T06:33:40;101444.78;;;18.60;62.95
61554;BME280;47425;51.976;5.326;2023-07-20T06:36:09;101455.72;;;18.73;61.58
61554;BME280;47425;51.976;5.326;2023-07-20T06:38:36;101451.03;;;18.59;60.66
61554;BME280;47425;51.976;5.326;2023-07-20T06:41:05;101452.16;;;18.54;61.49
61554;BME280;47425;51.976;5.326;2023-07-20T06:43:34;101455.84;;;18.70;61.84
61554;BME280;47425;51.976;5.326;2023-07-20T06:46:01;101458.16;;;18.78;61.18
61554;BME280;47425;51.976;5.326;2023-07-20T06:48:28;101461.22;;;18.89;60.70
61554;BME280;47425;51.976;5.326;2023-07-20T06:50:55;101454.88;;;18.93;61.53
61554;BME280;47425;51.976;5.326;2023-07-20T06:53:24;101460.09;;;19.14;60.40
61554;BME280;47425;51.976;5.326;2023-07-20T06:55:52;101457.59;;;19.11;59.84
61554;BME280;47425;51.976;5.326;2023-07-20T06:58:21;101462.59;;;19.17;60.63
61554;BME280;47425;51.976;5.326;2023-07-20T07:00:48;101466.91;;;19.39;60.51
61554;BME280;47425;51.976;5.326;2023-07-20T07:03:17;101453.41;;;19.43;59.79
61554;BME280;47425;51.976;5.326;2023-07-20T07:05:46;101463.28;;;19.59;59.54
61554;BME280;47425;51.976;5.326;2023-07-20T07:08:14;101461.81;;;19.71;59.10
61554;BME280;47425;51.976;5.326;2023-07-20T07:10:43;101461.25;;;19.83;58.78
61554;BME280;47425;51.976;5.326;2023-07-20T07:13:16;101459.94;;;19.92;58.84
61554;BME280;47425;51.976;5.326;2023-07-20T07:15:46;101458.22;;;19.91;57.68
61554;BME280;47425;51.976;5.326;2023-07-20T07:18:12;101462.91;;;20.03;58.42
61554;BME280;47425;51.976;5.326;2023-07-20T07:20:42;101464.81;;;20.01;58.27
61554;BME280;47425;51.976;5.326;2023-07-20T07:23:16;101456.50;;;19.90;58.17
61554;BME280;47425;51.976;5.326;2023-07-20T07:25:46;101461.78;;;20.09;57.15
61554;BME280;47425;51.976;5.326;2023-07-20T07:28:13;101470.34;;;20.14;56.30
61554;BME280;47425;51.976;5.326;2023-07-20T07:30:42;101467.53;;;20.00;56.43
61554;BME280;47425;51.976;5.326;2023-07-20T07:33:10;101467.75;;;19.95;57.12
61554;BME280;47425;51.976;5.326;2023-07-20T07:35:43;101467.69;;;19.97;56.57
61554;BME280;47425;51.976;5.326;2023-07-20T07:38:12;101472.78;;;20.19;57.27
61554;BME280;47425;51.976;5.326;2023-07-20T07:40:39;101469.66;;;20.45;57.68
61554;BME280;47425;51.976;5.326;2023-07-20T07:43:07;101466.34;;;20.75;57.17
61554;BME280;47425;51.976;5.326;2023-07-20T07:45:36;101479.47;;;20.78;54.05
61554;BME280;47425;51.976;5.326;2023-07-20T07:48:07;101474.94;;;20.63;53.89
61554;BME280;47425;51.976;5.326;2023-07-20T07:50:38;101475.13;;;20.60;54.84
61554;BME280;47425;51.976;5.326;2023-07-20T07:53:08;101456.75;;;20.38;55.49
61554;BME280;47425;51.976;5.326;2023-07-20T07:55:36;101471.50;;;20.61;55.51
61554;BME280;47425;51.976;5.326;2023-07-20T07:58:03;101474.53;;;20.88;55.41
61554;BME280;47425;51.976;5.326;2023-07-20T08:00:29;101470.19;;;21.19;54.00
61554;BME280;47425;51.976;5.326;2023-07-20T08:02:57;101463.25;;;21.33;53.22
61554;BME280;47425;51.976;5.326;2023-07-20T08:05:24;101476.03;;;21.58;53.45
61554;BME280;47425;51.976;5.326;2023-07-20T08:07:53;101467.78;;;21.78;51.83
61554;BME280;47425;51.976;5.326;2023-07-20T08:10:19;101473.22;;;21.61;51.11
61554;BME280;47425;51.976;5.326;2023-07-20T08:12:47;101470.72;;;21.58;51.83
61554;BME280;47425;51.976;5.326;2023-07-20T08:15:16;101474.44;;;21.55;49.00
61554;BME280;47425;51.976;5.326;2023-07-20T08:17:42;101481.28;;;21.75;51.68
61554;BME280;47425;51.976;5.326;2023-07-20T08:20:12;101475.91;;;21.61;49.35
61554;BME280;47425;51.976;5.326;2023-07-20T08:22:44;101482.41;;;21.39;49.66
61554;BME280;47425;51.976;5.326;2023-07-20T08:25:12;101481.28;;;21.43;51.82
61554;BME280;47425;51.976;5.326;2023-07-20T08:27:38;101487.22;;;21.81;50.88
61554;BME280;47425;51.976;5.326;2023-07-20T08:30:08;101486.63;;;22.06;50.97
61554;BME280;47425;51.976;5.326;2023-07-20T08:32:35;101488.97;;;22.12;47.36
61554;BME280;47425;51.976;5.326;2023-07-20T08:35:04;101484.44;;;21.82;46.54
61554;BME280;47425;51.976;5.326;2023-07-20T08:37:31;101490.53;;;22.00;49.83
61554;BME280;47425;51.976;5.326;2023-07-20T08:39:59;101487.44;;;22.22;46.51
61554;BME280;47425;51.976;5.326;2023-07-20T08:42:27;101491.63;;;22.12;44.78
61554;BME280;47425;51.976;5.326;2023-07-20T08:44:55;101492.84;;;22.06;46.74
61554;BME280;47425;51.976;5.326;2023-07-20T08:47:22;101485.78;;;22.05;47.98
61554;BME280;47425;51.976;5.326;2023-07-20T08:49:51;101493.22;;;22.31;46.78
61554;BME280;47425;51.976;5.326;2023-07-20T08:52:26;101482.34;;;22.34;46.02
61554;BME280;47425;51.976;5.326;2023-07-20T08:54:55;101485.94;;;22.49;47.59
61554;BME280;47425;51.976;5.326;2023-07-20T08:57:26;101487.34;;;22.54;45.64
61554;BME280;47425;51.976;5.326;2023-07-20T08:59:58;101484.88;;;22.51;45.59
61554;BME280;47425;51.976;5.326;2023-07-20T09:02:27;101489.34;;;22.36;45.02
61554;BME280;47425;51.976;5.326;2023-07-20T09:04:57;101483.53;;;22.13;45.62
61554;BME280;47425;51.976;5.326;2023-07-20T09:07:27;101478.69;;;22.20;46.47
61554;BME280;47425;51.976;5.326;2023-07-20T09:09:59;101478.91;;;22.32;47.70
61554;BME280;47425;51.976;5.326;2023-07-20T09:12:31;101484.41;;;22.44;47.19
61554;BME280;47425;51.976;5.326;2023-07-20T09:14:59;101485.66;;;22.82;47.91
61554;BME280;47425;51.976;5.326;2023-07-20T09:17:30;101489.66;;;23.04;44.93
61554;BME280;47425;51.976;5.326;2023-07-20T09:19:59;101490.25;;;22.66;43.23
61554;BME280;47425;51.976;5.326;2023-07-20T09:22:31;101493.00;;;22.50;46.23
61554;BME280;47425;51.976;5.326;2023-07-20T09:24:58;101483.00;;;22.82;47.31
61554;BME280;47425;51.976;5.326;2023-07-20T09:27:34;101481.94;;;23.28;45.25
61554;BME280;47425;51.976;5.326;2023-07-20T09:30:08;101484.81;;;23.25;42.86
61554;BME280;47425;51.976;5.326;2023-07-20T09:32:41;101479.09;;;23.02;43.69
61554;BME280;47425;51.976;5.326;2023-07-20T09:35:13;101486.34;;;23.15;45.45
61554;BME280;47425;51.976;5.326;2023-07-20T09:37:47;101485.91;;;23.35;45.72
61554;BME280;47425;51.976;5.326;2023-07-20T09:40:18;101480.28;;;23.54;45.49
61554;BME280;47425;51.976;5.326;2023-07-20T09:42:48;101477.00;;;23.91;45.33
61554;BME280;47425;51.976;5.326;2023-07-20T09:45:20;101477.81;;;24.19;44.25
61554;BME280;47425;51.976;5.326;2023-07-20T09:47:48;101481.47;;;24.43;44.33
61554;BME280;47425;51.976;5.326;2023-07-20T09:50:18;101480.50;;;24.57;41.35
61554;BME280;47425;51.976;5.326;2023-07-20T09:52:47;101473.44;;;24.30;39.89
61554;BME280;47425;51.976;5.326;2023-07-20T09:55:13;101475.22;;;24.17;42.19
61554;BME280;47425;51.976;5.326;2023-07-20T09:57:42;101458.53;;;23.86;42.48
61554;BME280;47425;51.976;5.326;2023-07-20T10:00:11;101472.50;;;23.91;41.10
61554;BME280;47425;51.976;5.326;2023-07-20T10:02:45;101470.44;;;23.40;40.31
61554;BME280;47425;51.976;5.326;2023-07-20T10:05:14;101473.94;;;23.13;43.80
61554;BME280;47425;51.976;5.326;2023-07-20T10:07:44;101471.91;;;23.46;44.81
61554;BME280;47425;51.976;5.326;2023-07-20T10:10:14;101468.59;;;23.55;40.18
61554;BME280;47425;51.976;5.326;2023-07-20T10:12:42;101462.63;;;23.65;43.31
61554;BME280;47425;51.976;5.326;2023-07-20T10:15:20;101463.00;;;23.73;41.19
61554;BME280;47425;51.976;5.326;2023-07-20T10:18:02;101454.63;;;23.37;41.10
61554;BME280;47425;51.976;5.326;2023-07-20T10:20:32;101454.13;;;23.45;44.03
61554;BME280;47425;51.976;5.326;2023-07-20T10:23:00;101457.47;;;23.76;43.41
61554;BME280;47425;51.976;5.326;2023-07-20T10:25:29;101461.63;;;23.94;43.20
61554;BME280;47425;51.976;5.326;2023-07-20T10:27:57;101456.81;;;24.12;40.05
61554;BME280;47425;51.976;5.326;2023-07-20T10:30:24;101460.78;;;24.07;39.34
61554;BME280;47425;51.976;5.326;2023-07-20T10:32:52;101459.38;;;24.01;38.69
61554;BME280;47425;51.976;5.326;2023-07-20T10:35:22;101461.78;;;23.91;41.14
61554;BME280;47425;51.976;5.326;2023-07-20T10:37:53;101461.78;;;23.91;38.96
61554;BME280;47425;51.976;5.326;2023-07-20T10:40:24;101452.59;;;23.95;42.36
61554;BME280;47425;51.976;5.326;2023-07-20T10:42:59;101455.03;;;24.26;41.94
61554;BME280;47425;51.976;5.326;2023-07-20T10:45:50;101459.41;;;24.27;41.21
61554;BME280;47425;51.976;5.326;2023-07-20T10:48:19;101449.91;;;24.49;42.01
61554;BME280;47425;51.976;5.326;2023-07-20T10:53:37;101450.97;;;24.59;38.29
61554;BME280;47425;51.976;5.326;2023-07-20T10:56:08;101456.63;;;24.54;39.62
61554;BME280;47425;51.976;5.326;2023-07-20T10:58:35;101454.19;;;24.51;41.31
61554;BME280;47425;51.976;5.326;2023-07-20T11:01:03;101451.41;;;24.78;40.17
61554;BME280;47425;51.976;5.326;2023-07-20T11:03:33;101441.63;;;24.90;41.01
61554;BME280;47425;51.976;5.326;2023-07-20T11:06:30;101442.09;;;25.21;40.91
61554;BME280;47425;51.976;5.326;2023-07-20T11:09:05;101440.25;;;25.22;39.62
61554;BME280;47425;51.976;5.326;2023-07-20T11:11:33;101439.06;;;25.39;40.09
61554;BME280;47425;51.976;5.326;2023-07-20T11:14:04;101437.19;;;25.52;38.01
61554;BME280;47425;51.976;5.326;2023-07-20T11:16:38;101444.38;;;25.52;37.97
61554;BME280;47425;51.976;5.326;2023-07-20T11:19:06;101447.28;;;25.49;39.56
61554;BME280;47425;51.976;5.326;2023-07-20T11:21:38;101435.75;;;25.35;35.95
61554;BME280;47425;51.976;5.326;2023-07-20T11:24:07;101441.97;;;24.73;35.64
61554;BME280;47425;51.976;5.326;2023-07-20T11:26:46;101436.63;;;24.21;36.53
61554;BME280;47425;51.976;5.326;2023-07-20T11:29:14;101427.72;;;24.08;38.07
61554;BME280;47425;51.976;5.326;2023-07-20T11:31:44;101430.06;;;24.38;37.69
61554;BME280;47425;51.976;5.326;2023-07-20T11:34:11;101429.66;;;24.70;39.35
61554;BME280;47425;51.976;5.326;2023-07-20T11:36:40;101430.28;;;24.61;37.90
61554;BME280;47425;51.976;5.326;2023-07-20T11:39:10;101425.03;;;24.59;36.51
61554;BME280;47425;51.976;5.326;2023-07-20T11:41:39;101421.41;;;24.73;37.45
61554;BME280;47425;51.976;5.326;2023-07-20T11:44:11;101428.78;;;24.83;37.64
61554;BME280;47425;51.976;5.326;2023-07-20T11:46:41;101418.19;;;24.81;37.16
61554;BME280;47425;51.976;5.326;2023-07-20T11:49:08;101420.13;;;24.66;38.14
61554;BME280;47425;51.976;5.326;2023-07-20T11:51:36;101418.66;;;24.62;39.01
61554;BME280;47425;51.976;5.326;2023-07-20T11:54:04;101406.47;;;24.95;38.88
61554;BME280;47425;51.976;5.326;2023-07-20T11:56:33;101403.38;;;25.25;38.78
61554;BME280;47425;51.976;5.326;2023-07-20T11:59:01;101409.50;;;25.27;36.79
61554;BME280;47425;51.976;5.326;2023-07-20T12:01:30;101400.38;;;25.30;38.22
61554;BME280;47425;51.976;5.326;2023-07-20T12:03:59;101401.88;;;25.34;35.97
61554;BME280;47425;51.976;5.326;2023-07-20T12:06:27;101400.47;;;25.53;36.49
61554;BME280;47425;51.976;5.326;2023-07-20T12:08:57;101398.94;;;25.61;37.41
61554;BME280;47425;51.976;5.326;2023-07-20T12:11:31;101397.31;;;25.83;37.33
61554;BME280;47425;51.976;5.326;2023-07-20T12:13:59;101404.78;;;25.91;37.35
61554;BME280;47425;51.976;5.326;2023-07-20T12:16:27;101394.84;;;26.04;35.99
61554;BME280;47425;51.976;5.326;2023-07-20T12:18:59;101404.19;;;25.99;37.13
61554;BME280;47425;51.976;5.326;2023-07-20T12:21:28;101392.53;;;25.75;35.65
61554;BME280;47425;51.976;5.326;2023-07-20T12:23:55;101394.56;;;25.96;37.17
61554;BME280;47425;51.976;5.326;2023-07-20T12:26:24;101391.38;;;26.02;36.11
61554;BME280;47425;51.976;5.326;2023-07-20T12:28:52;101400.94;;;26.06;37.04
61554;BME280;47425;51.976;5.326;2023-07-20T12:31:21;101397.91;;;26.11;35.45
61554;BME280;47425;51.976;5.326;2023-07-20T12:33:48;101389.41;;;25.93;35.42
61554;BME280;47425;51.976;5.326;2023-07-20T12:36:17;101385.66;;;25.60;36.35
61554;BME280;47425;51.976;5.326;2023-07-20T12:38:45;101387.53;;;25.71;38.18
61554;BME280;47425;51.976;5.326;2023-07-20T12:41:12;101398.50;;;26.03;37.31
61554;BME280;47425;51.976;5.326;2023-07-20T12:43:39;101397.28;;;26.07;35.12
61554;BME280;47425;51.976;5.326;2023-07-20T12:46:07;101393.91;;;25.92;34.49
61554;BME280;47425;51.976;5.326;2023-07-20T12:48:36;101389.00;;;25.75;33.33
61554;BME280;47425;51.976;5.326;2023-07-20T12:51:05;101382.47;;;25.55;34.05
61554;BME280;47425;51.976;5.326;2023-07-20T12:53:32;101377.50;;;25.37;34.89
61554;BME280;47425;51.976;5.326;2023-07-20T12:55:59;101387.06;;;25.53;35.66
61554;BME280;47425;51.976;5.326;2023-07-20T12:58:26;101387.16;;;25.75;35.12
61554;BME280;47425;51.976;5.326;2023-07-20T13:00:53;101378.50;;;25.72;36.34
61554;BME280;47425;51.976;5.326;2023-07-20T13:03:21;101387.84;;;25.66;34.99
61554;BME280;47425;51.976;5.326;2023-07-20T13:05:49;101381.53;;;25.67;34.95
61554;BME280;47425;51.976;5.326;2023-07-20T13:08:16;101383.41;;;25.29;35.05